PWSweather.com
Personal Weather Stations
Station Observations
KCOBOOMER
Belmont, Pueblo, CO 81001

BelmontPueblo, CO 81001

Lat: 38.2977486, Lon: -104.5754318

Elevation: 4795

Station Type: Davis Vantage Pro 2

http://www.puebloweather.net

Latest ConditionsUpdated 10:55:04 AM MST Sunday, Dec 21, 2014
Currently Today's Max Today's Min Today's Average
Temperature 48.2°F9.0°C 48.2°F9.0°C 24.7°F-4.1°C 31.2°F-0.4°C
Dew Point 21.9°F-5.6°C 23.2°F-4.9°C 16.3°F-8.7°C 19.3°F-7.1°C
Winds 4.0 mph SSW6.4 kmh SSW 18.0 mph SW29.0 kmh SW - 3.8 mph 6.1 kmh
Wind Gusts -- -- - -
Humidity 35% 72% 35% 62%
Pressure 29.73 in1006.8 mb 29.99 in1015.6 mb 29.73 in1006.8 mb -
Hour Temp Dew Point Humidity Winds Wind Gusts Pressure Precip Precip Rate Daily Precip Total
10:55 AM 48.2°F9.0°C 21.9°F-5.6°C 35% 4.0 mph SSW6.4 kmh SSW -- 29.73 in1006.8 mb 0.00 in0.0 mm 0.00 in/hr0.0 mm/hr 0.00 in0.0 mm
10:50 AM 48.0°F8.9°C 22.3°F-5.4°C 36% 10.0 mph SW16.1 kmh SW -- 29.73 in1006.8 mb 0.00 in0.0 mm 0.00 in/hr0.0 mm/hr 0.00 in0.0 mm
10:45 AM 47.8°F8.8°C 22.2°F-5.4°C 36% 7.0 mph SW11.3 kmh SW -- 29.74 in1007.1 mb 0.00 in0.0 mm 0.00 in/hr0.0 mm/hr 0.00 in0.0 mm
10:40 AM 47.8°F8.8°C 22.8°F-5.1°C 37% 7.0 mph SSW11.3 kmh SSW -- 29.74 in1007.1 mb 0.00 in0.0 mm 0.00 in/hr0.0 mm/hr 0.00 in0.0 mm
10:35 AM 47.8°F8.8°C 22.2°F-5.4°C 36% 13.0 mph SW20.9 kmh SW -- 29.75 in1007.5 mb 0.00 in0.0 mm 0.00 in/hr0.0 mm/hr 0.00 in0.0 mm
10:30 AM 47.7°F8.7°C 22.1°F-5.5°C 36% 7.0 mph SSW11.3 kmh SSW -- 29.75 in1007.5 mb 0.00 in0.0 mm 0.00 in/hr0.0 mm/hr 0.00 in0.0 mm
10:25 AM 47.3°F8.5°C 22.4°F-5.3°C 37% 10.0 mph SW16.1 kmh SW -- 29.76 in1007.8 mb 0.00 in0.0 mm 0.00 in/hr0.0 mm/hr 0.00 in0.0 mm
10:20 AM 46.7°F8.2°C 23.1°F-4.9°C 39% 10.0 mph SW16.1 kmh SW -- 29.77 in1008.1 mb 0.00 in0.0 mm 0.00 in/hr0.0 mm/hr 0.00 in0.0 mm
10:15 AM 45.9°F7.7°C 23.0°F-5.0°C 40% 17.0 mph SW27.4 kmh SW -- 29.77 in1008.1 mb 0.00 in0.0 mm 0.00 in/hr0.0 mm/hr 0.00 in0.0 mm
10:10 AM 44.3°F6.8°C 23.2°F-4.9°C 43% 18.0 mph SW29.0 kmh SW -- 29.77 in1008.1 mb 0.00 in0.0 mm 0.00 in/hr0.0 mm/hr 0.00 in0.0 mm
10:05 AM 44.1°F6.7°C 22.5°F-5.3°C 42% 3.0 mph SW4.8 kmh SW -- 29.78 in1008.5 mb 0.00 in0.0 mm 0.00 in/hr0.0 mm/hr 0.00 in0.0 mm
10:00 AM 43.7°F6.5°C 22.1°F-5.5°C 42% 9.0 mph SW14.5 kmh SW -- 29.77 in1008.1 mb 0.00 in0.0 mm 0.00 in/hr0.0 mm/hr 0.00 in0.0 mm
09:55 AM 43.4°F6.3°C 21.9°F-5.6°C 42% 10.0 mph WSW16.1 kmh WSW -- 29.77 in1008.1 mb 0.00 in0.0 mm 0.00 in/hr0.0 mm/hr 0.00 in0.0 mm
09:50 AM 42.9°F6.1°C 23.0°F-5.0°C 45% 2.0 mph S3.2 kmh S -- 29.77 in1008.1 mb 0.00 in0.0 mm 0.00 in/hr0.0 mm/hr 0.00 in0.0 mm
09:45 AM 41.6°F5.3°C 22.9°F-5.1°C 47% 5.0 mph SW8.0 kmh SW -- 29.76 in1007.8 mb 0.00 in0.0 mm 0.00 in/hr0.0 mm/hr 0.00 in0.0 mm
09:40 AM 39.8°F4.3°C 23.2°F-4.9°C 51% 4.0 mph ESE6.4 kmh ESE -- 29.76 in1007.8 mb 0.00 in0.0 mm 0.00 in/hr0.0 mm/hr 0.00 in0.0 mm
09:35 AM 37.8°F3.2°C 22.2°F-5.4°C 53% 1.0 mph ESE1.6 kmh ESE -- 29.77 in1008.1 mb 0.00 in0.0 mm 0.00 in/hr0.0 mm/hr 0.00 in0.0 mm
09:30 AM 37.1°F2.8°C 22.0°F-5.6°C 54% Calm Calm -- 29.78 in1008.5 mb 0.00 in0.0 mm 0.00 in/hr0.0 mm/hr 0.00 in0.0 mm
09:25 AM 37.1°F2.8°C 22.0°F-5.6°C 54% 4.0 mph ENE6.4 kmh ENE -- 29.78 in1008.5 mb 0.00 in0.0 mm 0.00 in/hr0.0 mm/hr 0.00 in0.0 mm
09:20 AM 37.7°F3.2°C 22.1°F-5.5°C 53% 4.0 mph ENE6.4 kmh ENE -- 29.80 in1009.1 mb 0.00 in0.0 mm 0.00 in/hr0.0 mm/hr 0.00 in0.0 mm
09:15 AM 38.1°F3.4°C 22.1°F-5.5°C 52% Calm Calm -- 29.80 in1009.1 mb 0.00 in0.0 mm 0.00 in/hr0.0 mm/hr 0.00 in0.0 mm
09:10 AM 37.0°F2.8°C 21.5°F-5.8°C 53% Calm Calm -- 29.80 in1009.1 mb 0.00 in0.0 mm 0.00 in/hr0.0 mm/hr 0.00 in0.0 mm
09:05 AM 36.0°F2.2°C 21.0°F-6.1°C 54% Calm Calm -- 29.80 in1009.1 mb 0.00 in0.0 mm 0.00 in/hr0.0 mm/hr 0.00 in0.0 mm
09:00 AM 35.9°F2.2°C 21.3°F-5.9°C 55% 6.0 mph SW9.7 kmh SW -- 29.80 in1009.1 mb 0.00 in0.0 mm 0.00 in/hr0.0 mm/hr 0.00 in0.0 mm
08:55 AM 35.2°F1.8°C 21.5°F-5.8°C 57% 13.0 mph SW20.9 kmh SW -- 29.81 in1009.5 mb 0.00 in0.0 mm 0.00 in/hr0.0 mm/hr 0.00 in0.0 mm
08:50 AM 33.8°F1.0°C 21.0°F-6.1°C 59% Calm Calm -- 29.80 in1009.1 mb 0.00 in0.0 mm 0.00 in/hr0.0 mm/hr 0.00 in0.0 mm
08:45 AM 32.8°F0.4°C 21.2°F-6.0°C 62% 8.0 mph NW12.9 kmh NW -- 29.81 in1009.5 mb 0.00 in0.0 mm 0.00 in/hr0.0 mm/hr 0.00 in0.0 mm
08:40 AM 31.2°F-0.4°C 21.2°F-6.0°C 66% Calm Calm -- 29.81 in1009.5 mb 0.00 in0.0 mm 0.00 in/hr0.0 mm/hr 0.00 in0.0 mm
08:35 AM 29.8°F-1.2°C 20.2°F-6.6°C 67% 4.0 mph WNW6.4 kmh WNW -- 29.82 in1009.8 mb 0.00 in0.0 mm 0.00 in/hr0.0 mm/hr 0.00 in0.0 mm
08:30 AM 29.1°F-1.6°C 19.9°F-6.7°C 68% Calm Calm -- 29.83 in1010.2 mb 0.00 in0.0 mm 0.00 in/hr0.0 mm/hr 0.00 in0.0 mm
08:25 AM 28.5°F-1.9°C 19.6°F-6.9°C 69% Calm Calm -- 29.82 in1009.8 mb 0.00 in0.0 mm 0.00 in/hr0.0 mm/hr 0.00 in0.0 mm
08:20 AM 28.2°F-2.1°C 19.7°F-6.8°C 70% Calm Calm -- 29.82 in1009.8 mb 0.00 in0.0 mm 0.00 in/hr0.0 mm/hr 0.00 in0.0 mm
08:15 AM 27.8°F-2.3°C 19.3°F-7.1°C 70% Calm Calm -- 29.82 in1009.8 mb 0.00 in0.0 mm 0.00 in/hr0.0 mm/hr 0.00 in0.0 mm
08:10 AM 27.5°F-2.5°C 19.0°F-7.2°C 70% Calm Calm -- 29.82 in1009.8 mb 0.00 in0.0 mm 0.00 in/hr0.0 mm/hr 0.00 in0.0 mm
08:05 AM 27.4°F-2.6°C 18.9°F-7.3°C 70% Calm Calm -- 29.83 in1010.2 mb 0.00 in0.0 mm 0.00 in/hr0.0 mm/hr 0.00 in0.0 mm
08:00 AM 27.4°F-2.6°C 18.6°F-7.4°C 69% 4.0 mph SW6.4 kmh SW -- 29.84 in1010.5 mb 0.00 in0.0 mm 0.00 in/hr0.0 mm/hr 0.00 in0.0 mm
07:55 AM 27.8°F-2.3°C 18.6°F-7.4°C 68% 4.0 mph SW6.4 kmh SW -- 29.84 in1010.5 mb 0.00 in0.0 mm 0.00 in/hr0.0 mm/hr 0.00 in0.0 mm
07:50 AM 28.5°F-1.9°C 18.6°F-7.4°C 66% 6.0 mph NNE9.7 kmh NNE -- 29.84 in1010.5 mb 0.00 in0.0 mm 0.00 in/hr0.0 mm/hr 0.00 in0.0 mm
07:45 AM 28.9°F-1.7°C 18.6°F-7.4°C 65% Calm Calm -- 29.84 in1010.5 mb 0.00 in0.0 mm 0.00 in/hr0.0 mm/hr 0.00 in0.0 mm
07:40 AM 29.1°F-1.6°C 18.8°F-7.3°C 65% Calm Calm -- 29.85 in1010.8 mb 0.00 in0.0 mm 0.00 in/hr0.0 mm/hr 0.00 in0.0 mm
07:35 AM 29.1°F-1.6°C 18.8°F-7.3°C 65% Calm Calm -- 29.85 in1010.8 mb 0.00 in0.0 mm 0.00 in/hr0.0 mm/hr 0.00 in0.0 mm
07:30 AM 28.9°F-1.7°C 19.0°F-7.2°C 66% 2.0 mph WNW3.2 kmh WNW -- 29.85 in1010.8 mb 0.00 in0.0 mm 0.00 in/hr0.0 mm/hr 0.00 in0.0 mm
07:25 AM 28.7°F-1.8°C 18.8°F-7.3°C 66% 4.0 mph WNW6.4 kmh WNW -- 29.86 in1011.2 mb 0.00 in0.0 mm 0.00 in/hr0.0 mm/hr 0.00 in0.0 mm
07:20 AM 28.6°F-1.9°C 18.7°F-7.4°C 66% 4.0 mph WNW6.4 kmh WNW -- 29.86 in1011.2 mb 0.00 in0.0 mm 0.00 in/hr0.0 mm/hr 0.00 in0.0 mm
07:15 AM 28.5°F-1.9°C 18.6°F-7.4°C 66% 7.0 mph W11.3 kmh W -- 29.87 in1011.5 mb 0.00 in0.0 mm 0.00 in/hr0.0 mm/hr 0.00 in0.0 mm
07:10 AM 28.3°F-2.1°C 18.8°F-7.3°C 67% 4.0 mph WNW6.4 kmh WNW -- 29.87 in1011.5 mb 0.00 in0.0 mm 0.00 in/hr0.0 mm/hr 0.00 in0.0 mm
07:05 AM 28.0°F-2.2°C 18.8°F-7.3°C 68% 8.0 mph W12.9 kmh W -- 29.87 in1011.5 mb 0.00 in0.0 mm 0.00 in/hr0.0 mm/hr 0.00 in0.0 mm
07:00 AM 27.7°F-2.4°C 18.9°F-7.3°C 69% 6.0 mph WNW9.7 kmh WNW -- 29.87 in1011.5 mb 0.00 in0.0 mm 0.00 in/hr0.0 mm/hr 0.00 in0.0 mm
06:55 AM 27.2°F-2.7°C 18.7°F-7.4°C 70% 4.0 mph WNW6.4 kmh WNW -- 29.87 in1011.5 mb 0.00 in0.0 mm 0.00 in/hr0.0 mm/hr 0.00 in0.0 mm
06:50 AM 26.8°F-2.9°C 18.3°F-7.6°C 70% 6.0 mph NW9.7 kmh NW -- 29.87 in1011.5 mb 0.00 in0.0 mm 0.00 in/hr0.0 mm/hr 0.00 in0.0 mm
06:45 AM 26.6°F-3.0°C 18.5°F-7.5°C 71% 2.0 mph NW3.2 kmh NW -- 29.87 in1011.5 mb 0.00 in0.0 mm 0.00 in/hr0.0 mm/hr 0.00 in0.0 mm
06:40 AM 26.5°F-3.1°C 18.4°F-7.6°C 71% 4.0 mph NW6.4 kmh NW -- 29.88 in1011.9 mb 0.00 in0.0 mm 0.00 in/hr0.0 mm/hr 0.00 in0.0 mm
06:35 AM 26.6°F-3.0°C 18.5°F-7.5°C 71% Calm Calm -- 29.88 in1011.9 mb 0.00 in0.0 mm 0.00 in/hr0.0 mm/hr 0.00 in0.0 mm
06:30 AM 26.8°F-2.9°C 18.3°F-7.6°C 70% Calm Calm -- 29.87 in1011.5 mb 0.00 in0.0 mm 0.00 in/hr0.0 mm/hr 0.00 in0.0 mm
06:25 AM 26.9°F-2.8°C 18.8°F-7.3°C 71% Calm Calm -- 29.87 in1011.5 mb 0.00 in0.0 mm 0.00 in/hr0.0 mm/hr 0.00 in0.0 mm
06:20 AM 26.9°F-2.8°C 18.8°F-7.3°C 71% Calm Calm -- 29.87 in1011.5 mb 0.00 in0.0 mm 0.00 in/hr0.0 mm/hr 0.00 in0.0 mm
06:15 AM 26.7°F-2.9°C 18.9°F-7.3°C 72% Calm Calm -- 29.86 in1011.2 mb 0.00 in0.0 mm 0.00 in/hr0.0 mm/hr 0.00 in0.0 mm
06:10 AM 26.2°F-3.2°C 18.4°F-7.6°C 72% 2.0 mph NW3.2 kmh NW -- 29.87 in1011.5 mb 0.00 in0.0 mm 0.00 in/hr0.0 mm/hr 0.00 in0.0 mm
06:05 AM 26.0°F-3.3°C 18.2°F-7.7°C 72% 2.0 mph NW3.2 kmh NW -- 29.87 in1011.5 mb 0.00 in0.0 mm 0.00 in/hr0.0 mm/hr 0.00 in0.0 mm
06:00 AM 26.0°F-3.3°C 17.9°F-7.8°C 71% 5.0 mph NW8.0 kmh NW -- 29.88 in1011.9 mb 0.00 in0.0 mm 0.00 in/hr0.0 mm/hr 0.00 in0.0 mm
05:55 AM 26.1°F-3.3°C 17.7°F-7.9°C 70% Calm Calm -- 29.88 in1011.9 mb 0.00 in0.0 mm 0.00 in/hr0.0 mm/hr 0.00 in0.0 mm
05:50 AM 26.3°F-3.2°C 17.9°F-7.8°C 70% 2.0 mph NW3.2 kmh NW -- 29.88 in1011.9 mb 0.00 in0.0 mm 0.00 in/hr0.0 mm/hr 0.00 in0.0 mm
05:45 AM 26.6°F-3.0°C 18.2°F-7.7°C 70% 4.0 mph W6.4 kmh W -- 29.88 in1011.9 mb 0.00 in0.0 mm 0.00 in/hr0.0 mm/hr 0.00 in0.0 mm
05:40 AM 26.7°F-2.9°C 18.3°F-7.6°C 70% Calm Calm -- 29.88 in1011.9 mb 0.00 in0.0 mm 0.00 in/hr0.0 mm/hr 0.00 in0.0 mm
05:35 AM 26.9°F-2.8°C 18.4°F-7.6°C 70% Calm Calm -- 29.88 in1011.9 mb 0.00 in0.0 mm 0.00 in/hr0.0 mm/hr 0.00 in0.0 mm
05:30 AM 27.1°F-2.7°C 18.6°F-7.4°C 70% Calm Calm -- 29.89 in1012.2 mb 0.00 in0.0 mm 0.00 in/hr0.0 mm/hr 0.00 in0.0 mm
05:25 AM 27.2°F-2.7°C 18.7°F-7.4°C 70% 1.0 mph W1.6 kmh W -- 29.89 in1012.2 mb 0.00 in0.0 mm 0.00 in/hr0.0 mm/hr 0.00 in0.0 mm
05:20 AM 27.4°F-2.6°C 18.9°F-7.3°C 70% 4.0 mph WNW6.4 kmh WNW -- 29.89 in1012.2 mb 0.00 in0.0 mm 0.00 in/hr0.0 mm/hr 0.00 in0.0 mm
05:15 AM 27.3°F-2.6°C 19.2°F-7.1°C 71% 6.0 mph NW9.7 kmh NW -- 29.89 in1012.2 mb 0.00 in0.0 mm 0.00 in/hr0.0 mm/hr 0.00 in0.0 mm
05:10 AM 26.9°F-2.8°C 19.1°F-7.2°C 72% 10.0 mph NW16.1 kmh NW -- 29.89 in1012.2 mb 0.00 in0.0 mm 0.00 in/hr0.0 mm/hr 0.00 in0.0 mm
05:05 AM 26.4°F-3.1°C 18.6°F-7.4°C 72% 6.0 mph WNW9.7 kmh WNW -- 29.90 in1012.5 mb 0.00 in0.0 mm 0.00 in/hr0.0 mm/hr 0.00 in0.0 mm
05:00 AM 26.2°F-3.2°C 18.1°F-7.7°C 71% Calm Calm -- 29.90 in1012.5 mb 0.00 in0.0 mm 0.00 in/hr0.0 mm/hr 0.00 in0.0 mm
04:55 AM 26.0°F-3.3°C 18.2°F-7.7°C 72% 4.0 mph WNW6.4 kmh WNW -- 29.89 in1012.2 mb 0.00 in0.0 mm 0.00 in/hr0.0 mm/hr 0.00 in0.0 mm
04:50 AM 25.6°F-3.6°C 17.8°F-7.9°C 72% 4.0 mph WNW6.4 kmh WNW -- 29.90 in1012.5 mb 0.00 in0.0 mm 0.00 in/hr0.0 mm/hr 0.00 in0.0 mm
04:45 AM 25.2°F-3.8°C 17.5°F-8.1°C 72% 5.0 mph NW8.0 kmh NW -- 29.90 in1012.5 mb 0.00 in0.0 mm 0.00 in/hr0.0 mm/hr 0.00 in0.0 mm
04:40 AM 24.9°F-3.9°C 17.2°F-8.2°C 72% 10.0 mph NW16.1 kmh NW -- 29.91 in1012.9 mb 0.00 in0.0 mm 0.00 in/hr0.0 mm/hr 0.00 in0.0 mm
04:35 AM 24.7°F-4.1°C 16.7°F-8.5°C 71% 7.0 mph NW11.3 kmh NW -- 29.92 in1013.2 mb 0.00 in0.0 mm 0.00 in/hr0.0 mm/hr 0.00 in0.0 mm
04:30 AM 24.8°F-4.0°C 16.4°F-8.7°C 70% 7.0 mph NW11.3 kmh NW -- 29.92 in1013.2 mb 0.00 in0.0 mm 0.00 in/hr0.0 mm/hr 0.00 in0.0 mm
04:25 AM 25.0°F-3.9°C 16.6°F-8.6°C 70% 6.0 mph NW9.7 kmh NW -- 29.92 in1013.2 mb 0.00 in0.0 mm 0.00 in/hr0.0 mm/hr 0.00 in0.0 mm
04:20 AM 25.3°F-3.7°C 16.6°F-8.6°C 69% 2.0 mph W3.2 kmh W -- 29.91 in1012.9 mb 0.00 in0.0 mm 0.00 in/hr0.0 mm/hr 0.00 in0.0 mm
04:15 AM 25.4°F-3.7°C 16.3°F-8.7°C 68% 3.0 mph W4.8 kmh W -- 29.91 in1012.9 mb 0.00 in0.0 mm 0.00 in/hr0.0 mm/hr 0.00 in0.0 mm
04:10 AM 25.7°F-3.5°C 16.6°F-8.6°C 68% Calm Calm -- 29.91 in1012.9 mb 0.00 in0.0 mm 0.00 in/hr0.0 mm/hr 0.00 in0.0 mm
04:05 AM 25.8°F-3.4°C 16.7°F-8.5°C 68% Calm Calm -- 29.91 in1012.9 mb 0.00 in0.0 mm 0.00 in/hr0.0 mm/hr 0.00 in0.0 mm
04:00 AM 26.0°F-3.3°C 16.9°F-8.4°C 68% Calm Calm -- 29.90 in1012.5 mb 0.00 in0.0 mm 0.00 in/hr0.0 mm/hr 0.00 in0.0 mm
03:55 AM 26.2°F-3.2°C 16.8°F-8.4°C 67% 4.0 mph W6.4 kmh W -- 29.91 in1012.9 mb 0.00 in0.0 mm 0.00 in/hr0.0 mm/hr 0.00 in0.0 mm
03:50 AM 26.6°F-3.0°C 17.1°F-8.3°C 67% 6.0 mph W9.7 kmh W -- 29.92 in1013.2 mb 0.00 in0.0 mm 0.00 in/hr0.0 mm/hr 0.00 in0.0 mm
03:45 AM 26.7°F-2.9°C 17.2°F-8.2°C 67% 6.0 mph W9.7 kmh W -- 29.92 in1013.2 mb 0.00 in0.0 mm 0.00 in/hr0.0 mm/hr 0.00 in0.0 mm
03:40 AM 26.9°F-2.8°C 17.4°F-8.1°C 67% 2.0 mph W3.2 kmh W -- 29.93 in1013.5 mb 0.00 in0.0 mm 0.00 in/hr0.0 mm/hr 0.00 in0.0 mm
03:35 AM 26.9°F-2.8°C 17.1°F-8.3°C 66% 5.0 mph W8.0 kmh W -- 29.93 in1013.5 mb 0.00 in0.0 mm 0.00 in/hr0.0 mm/hr 0.00 in0.0 mm
03:30 AM 27.3°F-2.6°C 16.8°F-8.4°C 64% 2.0 mph W3.2 kmh W -- 29.94 in1013.9 mb 0.00 in0.0 mm 0.00 in/hr0.0 mm/hr 0.00 in0.0 mm
03:25 AM 27.9°F-2.3°C 17.0°F-8.3°C 63% 6.0 mph W9.7 kmh W -- 29.94 in1013.9 mb 0.00 in0.0 mm 0.00 in/hr0.0 mm/hr 0.00 in0.0 mm
03:20 AM 28.3°F-2.1°C 17.3°F-8.2°C 63% Calm Calm -- 29.94 in1013.9 mb 0.00 in0.0 mm 0.00 in/hr0.0 mm/hr 0.00 in0.0 mm
03:15 AM 28.7°F-1.8°C 17.7°F-7.9°C 63% 2.0 mph W3.2 kmh W -- 29.94 in1013.9 mb 0.00 in0.0 mm 0.00 in/hr0.0 mm/hr 0.00 in0.0 mm
03:10 AM 29.3°F-1.5°C 18.3°F-7.6°C 63% Calm Calm -- 29.95 in1014.2 mb 0.00 in0.0 mm 0.00 in/hr0.0 mm/hr 0.00 in0.0 mm
03:05 AM 29.6°F-1.3°C 18.2°F-7.7°C 62% 5.0 mph WNW8.0 kmh WNW -- 29.95 in1014.2 mb 0.00 in0.0 mm 0.00 in/hr0.0 mm/hr 0.00 in0.0 mm
03:00 AM 29.9°F-1.2°C 18.5°F-7.5°C 62% 2.0 mph WNW3.2 kmh WNW -- 29.95 in1014.2 mb 0.00 in0.0 mm 0.00 in/hr0.0 mm/hr 0.00 in0.0 mm
02:55 AM 30.1°F-1.1°C 18.3°F-7.6°C 61% 5.0 mph W8.0 kmh W -- 29.96 in1014.6 mb 0.00 in0.0 mm 0.00 in/hr0.0 mm/hr 0.00 in0.0 mm
02:50 AM 30.6°F-0.8°C 19.1°F-7.2°C 62% Calm Calm -- 29.96 in1014.6 mb 0.00 in0.0 mm 0.00 in/hr0.0 mm/hr 0.00 in0.0 mm
02:45 AM 31.0°F-0.6°C 19.1°F-7.2°C 61% Calm Calm -- 29.96 in1014.6 mb 0.00 in0.0 mm 0.00 in/hr0.0 mm/hr 0.00 in0.0 mm
02:40 AM 31.0°F-0.6°C 19.1°F-7.2°C 61% 4.0 mph W6.4 kmh W -- 29.96 in1014.6 mb 0.00 in0.0 mm 0.00 in/hr0.0 mm/hr 0.00 in0.0 mm
02:35 AM 30.8°F-0.7°C 19.3°F-7.1°C 62% 4.0 mph WNW6.4 kmh WNW -- 29.96 in1014.6 mb 0.00 in0.0 mm 0.00 in/hr0.0 mm/hr 0.00 in0.0 mm
02:30 AM 30.6°F-0.8°C 19.1°F-7.2°C 62% 4.0 mph WNW6.4 kmh WNW -- 29.96 in1014.6 mb 0.00 in0.0 mm 0.00 in/hr0.0 mm/hr 0.00 in0.0 mm
02:25 AM 30.3°F-0.9°C 18.9°F-7.3°C 62% 4.0 mph WNW6.4 kmh WNW -- 29.96 in1014.6 mb 0.00 in0.0 mm 0.00 in/hr0.0 mm/hr 0.00 in0.0 mm
02:20 AM 30.2°F-1.0°C 19.1°F-7.2°C 63% 4.0 mph W6.4 kmh W -- 29.96 in1014.6 mb 0.00 in0.0 mm 0.00 in/hr0.0 mm/hr 0.00 in0.0 mm
02:15 AM 30.2°F-1.0°C 19.1°F-7.2°C 63% 2.0 mph W3.2 kmh W -- 29.96 in1014.6 mb 0.00 in0.0 mm 0.00 in/hr0.0 mm/hr 0.00 in0.0 mm
02:10 AM 30.2°F-1.0°C 19.1°F-7.2°C 63% Calm Calm -- 29.97 in1014.9 mb 0.00 in0.0 mm 0.00 in/hr0.0 mm/hr 0.00 in0.0 mm
02:05 AM 30.3°F-0.9°C 19.2°F-7.1°C 63% 6.0 mph W9.7 kmh W -- 29.97 in1014.9 mb 0.00 in0.0 mm 0.00 in/hr0.0 mm/hr 0.00 in0.0 mm
02:00 AM 30.5°F-0.8°C 19.4°F-7.0°C 63% 7.0 mph W11.3 kmh W -- 29.97 in1014.9 mb 0.00 in0.0 mm 0.00 in/hr0.0 mm/hr 0.00 in0.0 mm
01:55 AM 30.6°F-0.8°C 19.5°F-6.9°C 63% 4.0 mph WNW6.4 kmh WNW -- 29.97 in1014.9 mb 0.00 in0.0 mm 0.00 in/hr0.0 mm/hr 0.00 in0.0 mm
01:50 AM 30.7°F-0.7°C 19.6°F-6.9°C 63% 7.0 mph W11.3 kmh W -- 29.96 in1014.6 mb 0.00 in0.0 mm 0.00 in/hr0.0 mm/hr 0.00 in0.0 mm
01:45 AM 30.7°F-0.7°C 19.2°F-7.1°C 62% 6.0 mph WSW9.7 kmh WSW -- 29.96 in1014.6 mb 0.00 in0.0 mm 0.00 in/hr0.0 mm/hr 0.00 in0.0 mm
01:40 AM 30.8°F-0.7°C 19.0°F-7.2°C 61% 8.0 mph WNW12.9 kmh WNW -- 29.96 in1014.6 mb 0.00 in0.0 mm 0.00 in/hr0.0 mm/hr 0.00 in0.0 mm
01:35 AM 31.0°F-0.6°C 19.1°F-7.2°C 61% 8.0 mph W12.9 kmh W -- 29.95 in1014.2 mb 0.00 in0.0 mm 0.00 in/hr0.0 mm/hr 0.00 in0.0 mm
01:30 AM 30.9°F-0.6°C 19.1°F-7.2°C 61% 10.0 mph W16.1 kmh W -- 29.96 in1014.6 mb 0.00 in0.0 mm 0.00 in/hr0.0 mm/hr 0.00 in0.0 mm
01:25 AM 30.9°F-0.6°C 19.1°F-7.2°C 61% 6.0 mph WNW9.7 kmh WNW -- 29.96 in1014.6 mb 0.00 in0.0 mm 0.00 in/hr0.0 mm/hr 0.00 in0.0 mm
01:20 AM 30.8°F-0.7°C 19.0°F-7.2°C 61% 8.0 mph W12.9 kmh W -- 29.96 in1014.6 mb 0.00 in0.0 mm 0.00 in/hr0.0 mm/hr 0.00 in0.0 mm
01:15 AM 30.7°F-0.7°C 18.9°F-7.3°C 61% 6.0 mph W9.7 kmh W -- 29.96 in1014.6 mb 0.00 in0.0 mm 0.00 in/hr0.0 mm/hr 0.00 in0.0 mm
01:10 AM 30.7°F-0.7°C 18.9°F-7.3°C 61% Calm Calm -- 29.96 in1014.6 mb 0.00 in0.0 mm 0.00 in/hr0.0 mm/hr 0.00 in0.0 mm
01:05 AM 30.8°F-0.7°C 19.0°F-7.2°C 61% 1.0 mph WSW1.6 kmh WSW -- 29.96 in1014.6 mb 0.00 in0.0 mm 0.00 in/hr0.0 mm/hr 0.00 in0.0 mm
01:00 AM 31.0°F-0.6°C 18.8°F-7.3°C 60% Calm Calm -- 29.96 in1014.6 mb 0.00 in0.0 mm 0.00 in/hr0.0 mm/hr 0.00 in0.0 mm
12:55 AM 31.2°F-0.4°C 19.0°F-7.2°C 60% 2.0 mph WSW3.2 kmh WSW -- 29.97 in1014.9 mb 0.00 in0.0 mm 0.00 in/hr0.0 mm/hr 0.00 in0.0 mm
12:50 AM 31.4°F-0.3°C 19.1°F-7.2°C 60% Calm Calm -- 29.97 in1014.9 mb 0.00 in0.0 mm 0.00 in/hr0.0 mm/hr 0.00 in0.0 mm
12:45 AM 31.5°F-0.3°C 19.2°F-7.1°C 60% 2.0 mph WSW3.2 kmh WSW -- 29.97 in1014.9 mb 0.00 in0.0 mm 0.00 in/hr0.0 mm/hr 0.00 in0.0 mm
12:40 AM 31.7°F-0.2°C 19.4°F-7.0°C 60% Calm Calm -- 29.98 in1015.2 mb 0.00 in0.0 mm 0.00 in/hr0.0 mm/hr 0.00 in0.0 mm
12:35 AM 32.0°F0.0°C 19.7°F-6.8°C 60% Calm Calm -- 29.98 in1015.2 mb 0.00 in0.0 mm 0.00 in/hr0.0 mm/hr 0.00 in0.0 mm
12:30 AM 32.1°F0.1°C 19.8°F-6.8°C 60% Calm Calm -- 29.98 in1015.2 mb 0.00 in0.0 mm 0.00 in/hr0.0 mm/hr 0.00 in0.0 mm
12:25 AM 32.2°F0.1°C 19.9°F-6.7°C 60% 6.0 mph W9.7 kmh W -- 29.98 in1015.2 mb 0.00 in0.0 mm 0.00 in/hr0.0 mm/hr 0.00 in0.0 mm
12:20 AM 32.3°F0.2°C 19.6°F-6.9°C 59% 6.0 mph W9.7 kmh W -- 29.98 in1015.2 mb 0.00 in0.0 mm 0.00 in/hr0.0 mm/hr 0.00 in0.0 mm
12:15 AM 32.5°F0.3°C 19.8°F-6.8°C 59% 2.0 mph W3.2 kmh W -- 29.99 in1015.6 mb 0.00 in0.0 mm 0.00 in/hr0.0 mm/hr 0.00 in0.0 mm
12:10 AM 32.7°F0.4°C 20.0°F-6.7°C 59% 4.0 mph W6.4 kmh W -- 29.99 in1015.6 mb 0.00 in0.0 mm 0.00 in/hr0.0 mm/hr 0.00 in0.0 mm
12:05 AM 32.9°F0.5°C 20.2°F-6.6°C 59% 4.0 mph W6.4 kmh W -- 29.99 in1015.6 mb 0.00 in0.0 mm 0.00 in/hr0.0 mm/hr 0.00 in0.0 mm
12:00 AM 33.0°F0.6°C 20.3°F-6.5°C 59% 2.0 mph W3.2 kmh W -- 29.99 in1015.6 mb 0.00 in0.0 mm 0.00 in/hr0.0 mm/hr 0.00 in0.0 mm